sensor_id;sensor_type;location;lat;lon;timestamp;pressure;altitude;pressure_sealevel;temperature;humidity
22605;BME280;11469;49.024;8.246;2024-03-08T00:00:16;100336.06;;;5.24;100.00
22605;BME280;11469;49.024;8.246;2024-03-08T00:02:47;100333.13;;;5.21;100.00
22605;BME280;11469;49.024;8.246;2024-03-08T00:05:13;100341.94;;;5.23;100.00
22605;BME280;11469;49.024;8.246;2024-03-08T00:07:39;100335.75;;;5.17;100.00
22605;BME280;11469;49.024;8.246;2024-03-08T00:10:07;100338.69;;;5.12;100.00
22605;BME280;11469;49.024;8.246;2024-03-08T00:12:39;100326.59;;;5.08;100.00
22605;BME280;11469;49.024;8.246;2024-03-08T00:15:09;100326.75;;;5.03;100.00
22605;BME280;11469;49.024;8.246;2024-03-08T00:17:34;100326.75;;;5.03;100.00
22605;BME280;11469;49.024;8.246;2024-03-08T00:20:00;100318.25;;;4.99;100.00
22605;BME280;11469;49.024;8.246;2024-03-08T00:22:25;100318.25;;;4.99;100.00
22605;BME280;11469;49.024;8.246;2024-03-08T00:24:50;100321.38;;;4.98;100.00
22605;BME280;11469;49.024;8.246;2024-03-08T00:27:16;100314.00;;;4.93;100.00
22605;BME280;11469;49.024;8.246;2024-03-08T00:29:42;100318.56;;;4.89;100.00
22605;BME280;11469;49.024;8.246;2024-03-08T00:32:07;100310.56;;;4.88;100.00
22605;BME280;11469;49.024;8.246;2024-03-08T00:34:36;100308.44;;;4.85;100.00
22605;BME280;11469;49.024;8.246;2024-03-08T00:37:04;100311.06;;;4.81;100.00
22605;BME280;11469;49.024;8.246;2024-03-08T00:39:30;100307.78;;;4.79;100.00
22605;BME280;11469;49.024;8.246;2024-03-08T00:41:55;100313.00;;;4.81;100.00
22605;BME280;11469;49.024;8.246;2024-03-08T00:44:21;100302.56;;;4.78;100.00
22605;BME280;11469;49.024;8.246;2024-03-08T00:46:46;100306.31;;;4.73;100.00
22605;BME280;11469;49.024;8.246;2024-03-08T00:49:12;100305.84;;;4.71;100.00
22605;BME280;11469;49.024;8.246;2024-03-08T00:51:38;100308.63;;;4.71;100.00
22605;BME280;11469;49.024;8.246;2024-03-08T00:54:03;100297.34;;;4.68;100.00
22605;BME280;11469;49.024;8.246;2024-03-08T00:56:28;100296.03;;;4.65;100.00
22605;BME280;11469;49.024;8.246;2024-03-08T00:58:54;100289.16;;;4.62;100.00
22605;BME280;11469;49.024;8.246;2024-03-08T01:01:19;100298.78;;;4.56;100.00
22605;BME280;11469;49.024;8.246;2024-03-08T01:03:44;100305.97;;;4.57;100.00
22605;BME280;11469;49.024;8.246;2024-03-08T01:06:10;100298.16;;;4.59;100.00
22605;BME280;11469;49.024;8.246;2024-03-08T01:08:36;100295.19;;;4.47;100.00
22605;BME280;11469;49.024;8.246;2024-03-08T01:11:04;100284.91;;;4.48;100.00
22605;BME280;11469;49.024;8.246;2024-03-08T01:13:30;100285.06;;;4.51;100.00
22605;BME280;11469;49.024;8.246;2024-03-08T01:15:55;100275.75;;;4.47;100.00
22605;BME280;11469;49.024;8.246;2024-03-08T01:18:29;100276.06;;;4.46;100.00
22605;BME280;11469;49.024;8.246;2024-03-08T01:20:54;100281.31;;;4.47;100.00
22605;BME280;11469;49.024;8.246;2024-03-08T01:23:20;100271.00;;;4.39;100.00
22605;BME280;11469;49.024;8.246;2024-03-08T01:25:45;100266.41;;;4.34;100.00
22605;BME280;11469;49.024;8.246;2024-03-08T01:28:10;100270.66;;;4.32;100.00
22605;BME280;11469;49.024;8.246;2024-03-08T01:30:36;100260.53;;;4.27;100.00
22605;BME280;11469;49.024;8.246;2024-03-08T01:33:03;100255.78;;;4.28;100.00
22605;BME280;11469;49.024;8.246;2024-03-08T01:35:28;100254.16;;;4.27;100.00
22605;BME280;11469;49.024;8.246;2024-03-08T01:37:54;100255.28;;;4.26;100.00
22605;BME280;11469;49.024;8.246;2024-03-08T01:40:20;100251.38;;;4.18;100.00
22605;BME280;11469;49.024;8.246;2024-03-08T01:42:45;100245.66;;;4.15;100.00
22605;BME280;11469;49.024;8.246;2024-03-08T01:45:11;100245.84;;;4.18;100.00
22605;BME280;11469;49.024;8.246;2024-03-08T01:47:37;100239.47;;;4.18;100.00
22605;BME280;11469;49.024;8.246;2024-03-08T01:50:02;100240.94;;;4.15;100.00
22605;BME280;11469;49.024;8.246;2024-03-08T01:52:32;100243.38;;;4.08;100.00
22605;BME280;11469;49.024;8.246;2024-03-08T01:55:03;100238.31;;;4.10;100.00
22605;BME280;11469;49.024;8.246;2024-03-08T01:57:32;100236.81;;;4.04;100.00
22605;BME280;11469;49.024;8.246;2024-03-08T02:00:03;100234.19;;;3.99;100.00
22605;BME280;11469;49.024;8.246;2024-03-08T02:02:34;100222.59;;;3.97;100.00
22605;BME280;11469;49.024;8.246;2024-03-08T02:05:00;100215.91;;;3.89;100.00
22605;BME280;11469;49.024;8.246;2024-03-08T02:07:26;100214.13;;;3.93;100.00
22605;BME280;11469;49.024;8.246;2024-03-08T02:09:51;100210.66;;;3.88;100.00
22605;BME280;11469;49.024;8.246;2024-03-08T02:12:17;100194.50;;;3.81;100.00
22605;BME280;11469;49.024;8.246;2024-03-08T02:14:45;100194.19;;;3.74;100.00
22605;BME280;11469;49.024;8.246;2024-03-08T02:17:11;100193.38;;;3.74;100.00
22605;BME280;11469;49.024;8.246;2024-03-08T02:19:37;100186.19;;;3.73;100.00
22605;BME280;11469;49.024;8.246;2024-03-08T02:22:02;100192.38;;;3.70;100.00
22605;BME280;11469;49.024;8.246;2024-03-08T02:24:29;100194.16;;;3.65;100.00
22605;BME280;11469;49.024;8.246;2024-03-08T02:26:55;100189.75;;;3.64;100.00
22605;BME280;11469;49.024;8.246;2024-03-08T02:29:22;100188.78;;;3.69;100.00
22605;BME280;11469;49.024;8.246;2024-03-08T02:31:51;100193.81;;;3.67;100.00
22605;BME280;11469;49.024;8.246;2024-03-08T02:34:16;100191.88;;;3.67;100.00
22605;BME280;11469;49.024;8.246;2024-03-08T02:36:41;100191.69;;;3.64;100.00
22605;BME280;11469;49.024;8.246;2024-03-08T02:39:07;100178.16;;;3.62;100.00
22605;BME280;11469;49.024;8.246;2024-03-08T02:41:33;100183.38;;;3.64;100.00
22605;BME280;11469;49.024;8.246;2024-03-08T02:43:58;100184.84;;;3.61;100.00
22605;BME280;11469;49.024;8.246;2024-03-08T02:46:25;100182.53;;;3.55;100.00
22605;BME280;11469;49.024;8.246;2024-03-08T02:48:50;100183.34;;;3.55;100.00
22605;BME280;11469;49.024;8.246;2024-03-08T02:51:16;100179.25;;;3.53;100.00
22605;BME280;11469;49.024;8.246;2024-03-08T02:53:41;100177.44;;;3.48;100.00
22605;BME280;11469;49.024;8.246;2024-03-08T02:56:08;100168.47;;;3.43;100.00
22605;BME280;11469;49.024;8.246;2024-03-08T02:58:36;100173.19;;;3.42;100.00
22605;BME280;11469;49.024;8.246;2024-03-08T03:01:01;100177.41;;;3.40;100.00
22605;BME280;11469;49.024;8.246;2024-03-08T03:03:26;100168.91;;;3.36;100.00
22605;BME280;11469;49.024;8.246;2024-03-08T03:05:52;100161.59;;;3.40;100.00
22605;BME280;11469;49.024;8.246;2024-03-08T03:08:21;100156.69;;;3.37;100.00
22605;BME280;11469;49.024;8.246;2024-03-08T03:10:46;100154.06;;;3.32;100.00
22605;BME280;11469;49.024;8.246;2024-03-08T03:13:12;100154.41;;;3.30;100.00
22605;BME280;11469;49.024;8.246;2024-03-08T03:15:37;100159.13;;;3.30;100.00
22605;BME280;11469;49.024;8.246;2024-03-08T03:18:03;100157.81;;;3.27;100.00
22605;BME280;11469;49.024;8.246;2024-03-08T03:20:29;100149.16;;;3.20;100.00
22605;BME280;11469;49.024;8.246;2024-03-08T03:23:06;100146.38;;;3.20;100.00
22605;BME280;11469;49.024;8.246;2024-03-08T03:25:33;100147.19;;;3.21;100.00
22605;BME280;11469;49.024;8.246;2024-03-08T03:28:01;100147.00;;;3.17;100.00
22605;BME280;11469;49.024;8.246;2024-03-08T03:30:27;100147.34;;;3.16;100.00
22605;BME280;11469;49.024;8.246;2024-03-08T03:32:56;100144.88;;;3.14;100.00
22605;BME280;11469;49.024;8.246;2024-03-08T03:35:24;100135.56;;;3.10;100.00
22605;BME280;11469;49.024;8.246;2024-03-08T03:37:49;100135.06;;;3.08;100.00
22605;BME280;11469;49.024;8.246;2024-03-08T03:40:34;100129.84;;;3.07;100.00
22605;BME280;11469;49.024;8.246;2024-03-08T03:43:00;100132.13;;;3.05;100.00
22605;BME280;11469;49.024;8.246;2024-03-08T03:45:26;100130.31;;;3.00;100.00
22605;BME280;11469;49.024;8.246;2024-03-08T03:47:52;100127.53;;;3.00;100.00
22605;BME280;11469;49.024;8.246;2024-03-08T03:50:18;100116.78;;;2.98;100.00
22605;BME280;11469;49.024;8.246;2024-03-08T03:52:45;100121.31;;;2.94;100.00
22605;BME280;11469;49.024;8.246;2024-03-08T03:55:12;100121.63;;;2.93;100.00
22605;BME280;11469;49.024;8.246;2024-03-08T03:57:39;100116.09;;;2.93;100.00
22605;BME280;11469;49.024;8.246;2024-03-08T04:00:05;100124.41;;;2.93;100.00
22605;BME280;11469;49.024;8.246;2024-03-08T04:02:31;100122.75;;;2.92;100.00
22605;BME280;11469;49.024;8.246;2024-03-08T04:04:57;100117.72;;;2.94;100.00
22605;BME280;11469;49.024;8.246;2024-03-08T04:07:22;100121.81;;;2.96;100.00
22605;BME280;11469;49.024;8.246;2024-03-08T04:09:48;100117.59;;;2.99;100.00
22605;BME280;11469;49.024;8.246;2024-03-08T04:12:13;100122.44;;;2.93;100.00
22605;BME280;11469;49.024;8.246;2024-03-08T04:14:41;100121.31;;;2.94;100.00
22605;BME280;11469;49.024;8.246;2024-03-08T04:17:07;100116.59;;;2.95;100.00
22605;BME280;11469;49.024;8.246;2024-03-08T04:19:34;100117.22;;;2.92;100.00
22605;BME280;11469;49.024;8.246;2024-03-08T04:22:00;100113.97;;;2.90;100.00
22605;BME280;11469;49.024;8.246;2024-03-08T04:24:26;100114.28;;;2.88;100.00
22605;BME280;11469;49.024;8.246;2024-03-08T04:26:52;100109.22;;;2.82;100.00
22605;BME280;11469;49.024;8.246;2024-03-08T04:29:18;100111.00;;;2.78;100.00
22605;BME280;11469;49.024;8.246;2024-03-08T04:31:43;100109.16;;;2.73;100.00
22605;BME280;11469;49.024;8.246;2024-03-08T04:34:09;100093.81;;;2.67;100.00
22605;BME280;11469;49.024;8.246;2024-03-08T04:36:35;100099.34;;;2.67;100.00
22605;BME280;11469;49.024;8.246;2024-03-08T04:39:00;100096.59;;;2.67;100.00
22605;BME280;11469;49.024;8.246;2024-03-08T04:41:25;100103.25;;;2.66;100.00
22605;BME280;11469;49.024;8.246;2024-03-08T04:43:51;100095.72;;;2.58;100.00
22605;BME280;11469;49.024;8.246;2024-03-08T04:46:17;100093.78;;;2.58;100.00
22605;BME280;11469;49.024;8.246;2024-03-08T04:48:43;100087.09;;;2.59;100.00
22605;BME280;11469;49.024;8.246;2024-03-08T04:51:08;100086.91;;;2.56;100.00
22605;BME280;11469;49.024;8.246;2024-03-08T04:53:34;100093.06;;;2.53;100.00
22605;BME280;11469;49.024;8.246;2024-03-08T04:56:00;100082.31;;;2.51;100.00
22605;BME280;11469;49.024;8.246;2024-03-08T04:58:31;100081.63;;;2.46;100.00
22605;BME280;11469;49.024;8.246;2024-03-08T05:00:56;100079.19;;;2.44;100.00
22605;BME280;11469;49.024;8.246;2024-03-08T05:03:22;100079.19;;;2.44;100.00
22605;BME280;11469;49.024;8.246;2024-03-08T05:05:47;100081.94;;;2.44;100.00
22605;BME280;11469;49.024;8.246;2024-03-08T05:08:12;100071.72;;;2.45;100.00
22605;BME280;11469;49.024;8.246;2024-03-08T05:10:38;100074.97;;;2.47;100.00
22605;BME280;11469;49.024;8.246;2024-03-08T05:13:03;100075.59;;;2.44;100.00
22605;BME280;11469;49.024;8.246;2024-03-08T05:15:29;100092.19;;;2.44;100.00
22605;BME280;11469;49.024;8.246;2024-03-08T05:17:54;100085.22;;;2.46;100.00
22605;BME280;11469;49.024;8.246;2024-03-08T05:20:21;100085.66;;;2.40;100.00
22605;BME280;11469;49.024;8.246;2024-03-08T05:22:47;100085.03;;;2.43;100.00
22605;BME280;11469;49.024;8.246;2024-03-08T05:25:12;100080.63;;;2.42;100.00
22605;BME280;11469;49.024;8.246;2024-03-08T05:27:39;100081.56;;;2.37;100.00
22605;BME280;11469;49.024;8.246;2024-03-08T05:30:05;100078.97;;;2.32;100.00
22605;BME280;11469;49.024;8.246;2024-03-08T05:32:31;100076.69;;;2.34;100.00
22605;BME280;11469;49.024;8.246;2024-03-08T05:34:57;100077.84;;;2.33;100.00
22605;BME280;11469;49.024;8.246;2024-03-08T05:37:23;100081.22;;;2.30;100.00
22605;BME280;11469;49.024;8.246;2024-03-08T05:39:48;100078.16;;;2.31;100.00
22605;BME280;11469;49.024;8.246;2024-03-08T05:42:13;100066.59;;;2.29;100.00
22605;BME280;11469;49.024;8.246;2024-03-08T05:44:39;100069.47;;;2.24;100.00
22605;BME280;11469;49.024;8.246;2024-03-08T05:47:06;100062.44;;;2.18;100.00
22605;BME280;11469;49.024;8.246;2024-03-08T05:49:32;100068.28;;;2.17;100.00
22605;BME280;11469;49.024;8.246;2024-03-08T05:51:57;100067.06;;;2.09;100.00
22605;BME280;11469;49.024;8.246;2024-03-08T05:54:23;100060.03;;;2.03;100.00
22605;BME280;11469;49.024;8.246;2024-03-08T05:56:49;100060.84;;;2.04;100.00
22605;BME280;11469;49.024;8.246;2024-03-08T05:59:18;100070.03;;;2.13;100.00
22605;BME280;11469;49.024;8.246;2024-03-08T06:01:43;100066.13;;;2.14;100.00
22605;BME280;11469;49.024;8.246;2024-03-08T06:04:09;100055.56;;;2.16;100.00
22605;BME280;11469;49.024;8.246;2024-03-08T06:06:36;100059.47;;;2.15;100.00
22605;BME280;11469;49.024;8.246;2024-03-08T06:09:02;100058.16;;;2.12;100.00
22605;BME280;11469;49.024;8.246;2024-03-08T06:11:34;100058.03;;;2.17;100.00
22605;BME280;11469;49.024;8.246;2024-03-08T06:13:59;100055.78;;;2.19;100.00
22605;BME280;11469;49.024;8.246;2024-03-08T06:16:28;100054.00;;;2.23;100.00
22605;BME280;11469;49.024;8.246;2024-03-08T06:18:57;100046.41;;;2.29;100.00
22605;BME280;11469;49.024;8.246;2024-03-08T06:21:23;100052.75;;;2.29;100.00
22605;BME280;11469;49.024;8.246;2024-03-08T06:23:51;100051.13;;;2.28;100.00
22605;BME280;11469;49.024;8.246;2024-03-08T06:26:16;100050.00;;;2.29;100.00
22605;BME280;11469;49.024;8.246;2024-03-08T06:28:41;100057.16;;;2.30;100.00
22605;BME280;11469;49.024;8.246;2024-03-08T06:31:07;100056.84;;;2.32;100.00
22605;BME280;11469;49.024;8.246;2024-03-08T06:33:33;100061.41;;;2.37;100.00
22605;BME280;11469;49.024;8.246;2024-03-08T06:35:58;100055.56;;;2.38;100.00
22605;BME280;11469;49.024;8.246;2024-03-08T06:38:24;100062.09;;;2.42;100.00
22605;BME280;11469;49.024;8.246;2024-03-08T06:40:50;100053.47;;;2.44;100.00
22605;BME280;11469;49.024;8.246;2024-03-08T06:43:17;100051.22;;;2.46;100.00
22605;BME280;11469;49.024;8.246;2024-03-08T06:45:43;100056.94;;;2.49;100.00
22605;BME280;11469;49.024;8.246;2024-03-08T06:48:14;100050.25;;;2.50;100.00
22605;BME280;11469;49.024;8.246;2024-03-08T06:50:40;100049.81;;;2.57;100.00
22605;BME280;11469;49.024;8.246;2024-03-08T06:53:05;100055.72;;;2.64;100.00
22605;BME280;11469;49.024;8.246;2024-03-08T06:55:31;100050.38;;;2.67;100.00
22605;BME280;11469;49.024;8.246;2024-03-08T06:57:56;100051.56;;;2.75;100.00
22605;BME280;11469;49.024;8.246;2024-03-08T07:00:23;100054.81;;;2.77;100.00
22605;BME280;11469;49.024;8.246;2024-03-08T07:02:52;100049.28;;;2.77;100.00
22605;BME280;11469;49.024;8.246;2024-03-08T07:05:19;100050.09;;;2.78;100.00
22605;BME280;11469;49.024;8.246;2024-03-08T07:07:44;100042.78;;;2.82;100.00
22605;BME280;11469;49.024;8.246;2024-03-08T07:10:09;100037.41;;;2.85;100.00
22605;BME280;11469;49.024;8.246;2024-03-08T07:12:40;100030.41;;;2.88;100.00
22605;BME280;11469;49.024;8.246;2024-03-08T07:15:06;100036.94;;;2.92;100.00
22605;BME280;11469;49.024;8.246;2024-03-08T07:17:32;100041.38;;;3.02;100.00
22605;BME280;11469;49.024;8.246;2024-03-08T07:19:59;100035.56;;;3.12;100.00
22605;BME280;11469;49.024;8.246;2024-03-08T07:22:31;100036.72;;;3.19;100.00
22605;BME280;11469;49.024;8.246;2024-03-08T07:24:56;100037.06;;;3.18;100.00
22605;BME280;11469;49.024;8.246;2024-03-08T07:27:22;100034.31;;;3.26;100.00
22605;BME280;11469;49.024;8.246;2024-03-08T07:29:47;100038.56;;;3.41;100.00
22605;BME280;11469;49.024;8.246;2024-03-08T07:32:13;100038.88;;;3.40;100.00
22605;BME280;11469;49.024;8.246;2024-03-08T07:34:48;100045.91;;;3.46;100.00
22605;BME280;11469;49.024;8.246;2024-03-08T07:37:16;100039.41;;;3.59;100.00
22605;BME280;11469;49.024;8.246;2024-03-08T07:39:41;100034.38;;;3.70;100.00
22605;BME280;11469;49.024;8.246;2024-03-08T07:42:07;100036.00;;;3.79;100.00
22605;BME280;11469;49.024;8.246;2024-03-08T07:44:32;100035.66;;;3.81;100.00
22605;BME280;11469;49.024;8.246;2024-03-08T07:46:59;100035.84;;;3.76;100.00
22605;BME280;11469;49.024;8.246;2024-03-08T07:49:24;100024.75;;;3.93;100.00
22605;BME280;11469;49.024;8.246;2024-03-08T07:51:50;100021.16;;;4.10;100.00
22605;BME280;11469;49.024;8.246;2024-03-08T07:54:15;100027.03;;;4.08;99.91
22605;BME280;11469;49.024;8.246;2024-03-08T07:56:40;100018.53;;;4.13;100.00
22605;BME280;11469;49.024;8.246;2024-03-08T07:59:07;100011.84;;;4.23;99.79
22605;BME280;11469;49.024;8.246;2024-03-08T08:01:33;100010.34;;;4.25;99.30
22605;BME280;11469;49.024;8.246;2024-03-08T08:03:59;100002.66;;;4.40;99.48
22605;BME280;11469;49.024;8.246;2024-03-08T08:06:26;100012.28;;;4.42;99.04
22605;BME280;11469;49.024;8.246;2024-03-08T08:08:52;100014.09;;;4.38;98.42
22605;BME280;11469;49.024;8.246;2024-03-08T08:11:17;100012.59;;;4.49;97.84
22605;BME280;11469;49.024;8.246;2024-03-08T08:13:43;100006.22;;;4.57;97.85
22605;BME280;11469;49.024;8.246;2024-03-08T08:16:09;100007.19;;;4.61;96.82
22605;BME280;11469;49.024;8.246;2024-03-08T08:18:34;100006.94;;;4.75;98.58
22605;BME280;11469;49.024;8.246;2024-03-08T08:21:01;100005.78;;;4.76;96.69
22605;BME280;11469;49.024;8.246;2024-03-08T08:23:26;100010.34;;;4.81;96.40
22605;BME280;11469;49.024;8.246;2024-03-08T08:25:52;100002.75;;;4.69;95.49
22605;BME280;11469;49.024;8.246;2024-03-08T08:28:17;100006.44;;;4.82;95.62
22605;BME280;11469;49.024;8.246;2024-03-08T08:30:44;99997.88;;;4.95;96.21
22605;BME280;11469;49.024;8.246;2024-03-08T08:33:09;99996.59;;;4.93;94.93
22605;BME280;11469;49.024;8.246;2024-03-08T08:35:39;99999.69;;;4.91;95.12
22605;BME280;11469;49.024;8.246;2024-03-08T08:38:04;100004.13;;;4.84;94.64
22605;BME280;11469;49.024;8.246;2024-03-08T08:40:30;100005.56;;;4.98;94.60
22605;BME280;11469;49.024;8.246;2024-03-08T08:42:57;99990.00;;;5.06;94.56
22605;BME280;11469;49.024;8.246;2024-03-08T08:45:23;99994.34;;;5.16;94.33
22605;BME280;11469;49.024;8.246;2024-03-08T08:47:49;99993.88;;;5.14;94.69
22605;BME280;11469;49.024;8.246;2024-03-08T08:50:15;99990.28;;;5.13;93.96
22605;BME280;11469;49.024;8.246;2024-03-08T08:52:41;99994.34;;;5.16;94.77
22605;BME280;11469;49.024;8.246;2024-03-08T08:55:09;99993.81;;;5.22;93.56
22605;BME280;11469;49.024;8.246;2024-03-08T08:57:39;99994.81;;;5.47;94.01
22605;BME280;11469;49.024;8.246;2024-03-08T09:00:05;99992.78;;;5.56;92.72
22605;BME280;11469;49.024;8.246;2024-03-08T09:02:33;99987.56;;;5.55;91.63
22605;BME280;11469;49.024;8.246;2024-03-08T09:04:58;99987.03;;;5.61;91.10
22605;BME280;11469;49.024;8.246;2024-03-08T09:07:23;99976.03;;;5.44;91.60
22605;BME280;11469;49.024;8.246;2024-03-08T09:09:49;99984.44;;;5.56;92.20
22605;BME280;11469;49.024;8.246;2024-03-08T09:12:14;99980.44;;;5.45;92.72
22605;BME280;11469;49.024;8.246;2024-03-08T09:14:40;99984.25;;;5.61;91.92
22605;BME280;11469;49.024;8.246;2024-03-08T09:17:07;99979.75;;;5.69;90.43
22605;BME280;11469;49.024;8.246;2024-03-08T09:19:34;99976.75;;;5.74;90.40
22605;BME280;11469;49.024;8.246;2024-03-08T09:22:00;99979.47;;;5.83;90.81
22605;BME280;11469;49.024;8.246;2024-03-08T09:24:26;99976.56;;;5.79;91.15
22605;BME280;11469;49.024;8.246;2024-03-08T09:26:52;99970.84;;;5.76;90.23
22605;BME280;11469;49.024;8.246;2024-03-08T09:29:17;99983.03;;;5.92;89.92
22605;BME280;11469;49.024;8.246;2024-03-08T09:31:43;99970.50;;;5.77;90.13
22605;BME280;11469;49.024;8.246;2024-03-08T09:34:08;99976.66;;;5.91;89.26
22605;BME280;11469;49.024;8.246;2024-03-08T09:36:34;99979.97;;;6.06;88.81
22605;BME280;11469;49.024;8.246;2024-03-08T09:39:01;99967.56;;;6.15;90.27
22605;BME280;11469;49.024;8.246;2024-03-08T09:41:29;99960.13;;;6.40;87.79
22605;BME280;11469;49.024;8.246;2024-03-08T09:43:56;99964.50;;;6.29;88.57
22605;BME280;11469;49.024;8.246;2024-03-08T09:46:25;99959.25;;;6.27;89.12
22605;BME280;11469;49.024;8.246;2024-03-08T09:48:53;99943.41;;;6.40;88.72
22605;BME280;11469;49.024;8.246;2024-03-08T09:51:22;99943.16;;;6.33;88.40
22605;BME280;11469;49.024;8.246;2024-03-08T09:53:50;99952.00;;;6.02;88.30
22605;BME280;11469;49.024;8.246;2024-03-08T09:56:15;99938.31;;;5.76;88.89
22605;BME280;11469;49.024;8.246;2024-03-08T09:58:41;99931.84;;;5.84;90.47
22605;BME280;11469;49.024;8.246;2024-03-08T10:01:25;99933.28;;;6.11;88.96
22605;BME280;11469;49.024;8.246;2024-03-08T10:03:52;99926.34;;;6.29;88.15
22605;BME280;11469;49.024;8.246;2024-03-08T10:06:25;99914.69;;;6.15;87.59
22605;BME280;11469;49.024;8.246;2024-03-08T10:08:50;99936.53;;;6.25;87.31
22605;BME280;11469;49.024;8.246;2024-03-08T10:11:18;99931.34;;;6.36;87.36
22605;BME280;11469;49.024;8.246;2024-03-08T10:13:44;99927.78;;;6.60;86.47
22605;BME280;11469;49.024;8.246;2024-03-08T10:16:12;99924.06;;;6.56;85.26
22605;BME280;11469;49.024;8.246;2024-03-08T10:18:37;99910.91;;;6.32;86.56
22605;BME280;11469;49.024;8.246;2024-03-08T10:21:08;99914.78;;;6.64;86.44
22605;BME280;11469;49.024;8.246;2024-03-08T10:23:36;99913.41;;;6.82;84.71
22605;BME280;11469;49.024;8.246;2024-03-08T10:26:18;99913.41;;;6.94;85.84
22605;BME280;11469;49.024;8.246;2024-03-08T10:28:47;99913.13;;;7.12;84.57
22605;BME280;11469;49.024;8.246;2024-03-08T10:31:16;99904.56;;;6.92;84.20
22605;BME280;11469;49.024;8.246;2024-03-08T10:33:42;99904.34;;;6.73;84.96
22605;BME280;11469;49.024;8.246;2024-03-08T10:36:10;99904.09;;;7.03;85.38
22605;BME280;11469;49.024;8.246;2024-03-08T10:38:40;99907.00;;;6.94;84.81
22605;BME280;11469;49.024;8.246;2024-03-08T10:41:07;99904.94;;;6.54;84.84
22605;BME280;11469;49.024;8.246;2024-03-08T10:49:26;99901.22;;;6.75;84.22
22605;BME280;11469;49.024;8.246;2024-03-08T10:51:56;99903.75;;;7.04;84.60
22605;BME280;11469;49.024;8.246;2024-03-08T10:54:25;99909.75;;;7.30;84.63
22605;BME280;11469;49.024;8.246;2024-03-08T10:56:51;99913.69;;;7.29;82.23
22605;BME280;11469;49.024;8.246;2024-03-08T10:59:18;99902.16;;;7.43;81.28
22605;BME280;11469;49.024;8.246;2024-03-08T11:01:44;99892.31;;;7.33;81.78
22605;BME280;11469;49.024;8.246;2024-03-08T11:04:10;99903.31;;;7.42;82.23
22605;BME280;11469;49.024;8.246;2024-03-08T11:09:32;99891.56;;;6.96;82.81
22605;BME280;11469;49.024;8.246;2024-03-08T11:14:47;99897.13;;;7.09;82.45
22605;BME280;11469;49.024;8.246;2024-03-08T11:17:14;99882.69;;;7.19;81.47
22605;BME280;11469;49.024;8.246;2024-03-08T11:19:46;99891.59;;;7.37;82.95
22605;BME280;11469;49.024;8.246;2024-03-08T11:22:23;99893.03;;;7.58;81.62
22605;BME280;11469;49.024;8.246;2024-03-08T11:24:53;99887.13;;;7.88;81.42
22605;BME280;11469;49.024;8.246;2024-03-08T11:27:18;99889.53;;;7.89;80.44
22605;BME280;11469;49.024;8.246;2024-03-08T11:29:59;99886.50;;;7.94;79.23
22605;BME280;11469;49.024;8.246;2024-03-08T11:32:28;99873.31;;;7.51;79.94
22605;BME280;11469;49.024;8.246;2024-03-08T11:34:54;99876.00;;;7.76;81.13
22605;BME280;11469;49.024;8.246;2024-03-08T11:37:20;99872.66;;;7.98;80.49
22605;BME280;11469;49.024;8.246;2024-03-08T11:39:55;99872.75;;;8.17;80.38
22605;BME280;11469;49.024;8.246;2024-03-08T11:42:29;99870.56;;;7.95;80.16
22605;BME280;11469;49.024;8.246;2024-03-08T11:44:55;99862.81;;;7.60;82.08
22605;BME280;11469;49.024;8.246;2024-03-08T11:47:21;99858.72;;;7.70;81.55
22605;BME280;11469;49.024;8.246;2024-03-08T11:49:46;99850.13;;;7.35;82.51
22605;BME280;11469;49.024;8.246;2024-03-08T11:52:16;99853.13;;;7.70;81.65
22605;BME280;11469;49.024;8.246;2024-03-08T11:54:42;99841.19;;;7.42;82.11
22605;BME280;11469;49.024;8.246;2024-03-08T11:57:08;99847.06;;;7.52;82.12
22605;BME280;11469;49.024;8.246;2024-03-08T11:59:35;99836.91;;;7.60;81.70
22605;BME280;11469;49.024;8.246;2024-03-08T12:02:05;99837.16;;;7.83;81.68
22605;BME280;11469;49.024;8.246;2024-03-08T12:04:32;99835.88;;;7.80;81.59
22605;BME280;11469;49.024;8.246;2024-03-08T12:07:00;99826.09;;;7.86;82.50
22605;BME280;11469;49.024;8.246;2024-03-08T12:09:28;99825.50;;;7.65;81.15
22605;BME280;11469;49.024;8.246;2024-03-08T12:11:53;99820.81;;;7.69;81.36
22605;BME280;11469;49.024;8.246;2024-03-08T12:14:19;99813.41;;;8.05;82.84
22605;BME280;11469;49.024;8.246;2024-03-08T12:16:44;99811.75;;;7.72;80.72
22605;BME280;11469;49.024;8.246;2024-03-08T12:19:10;99804.97;;;7.57;80.36
22605;BME280;11469;49.024;8.246;2024-03-08T12:21:36;99808.50;;;7.70;81.81
22605;BME280;11469;49.024;8.246;2024-03-08T12:24:06;99804.81;;;7.66;81.61
22605;BME280;11469;49.024;8.246;2024-03-08T12:26:36;99802.44;;;7.52;84.34
22605;BME280;11469;49.024;8.246;2024-03-08T12:31:42;99798.66;;;7.45;82.90
22605;BME280;11469;49.024;8.246;2024-03-08T12:34:07;99794.34;;;7.63;83.29
22605;BME280;11469;49.024;8.246;2024-03-08T12:36:35;99800.91;;;7.98;81.66
22605;BME280;11469;49.024;8.246;2024-03-08T12:39:01;99795.88;;;7.60;81.17
22605;BME280;11469;49.024;8.246;2024-03-08T12:41:29;99792.16;;;7.84;82.84
22605;BME280;11469;49.024;8.246;2024-03-08T12:43:54;99786.19;;;7.54;82.40
22605;BME280;11469;49.024;8.246;2024-03-08T12:46:21;99778.63;;;7.71;81.91
22605;BME280;11469;49.024;8.246;2024-03-08T12:48:47;99755.06;;;7.52;82.90
22605;BME280;11469;49.024;8.246;2024-03-08T12:51:14;99769.28;;;7.79;82.80
22605;BME280;11469;49.024;8.246;2024-03-08T12:53:44;99763.38;;;7.96;81.29
22605;BME280;11469;49.024;8.246;2024-03-08T12:56:11;99766.03;;;7.77;80.29
22605;BME280;11469;49.024;8.246;2024-03-08T12:58:37;99768.13;;;7.95;81.85
22605;BME280;11469;49.024;8.246;2024-03-08T13:01:03;99746.19;;;7.94;81.21
22605;BME280;11469;49.024;8.246;2024-03-08T13:03:35;99742.91;;;8.08;80.50
22605;BME280;11469;49.024;8.246;2024-03-08T13:06:10;99744.44;;;8.05;79.63
22605;BME280;11469;49.024;8.246;2024-03-08T13:08:36;99733.25;;;7.58;81.53